Aérodrome :
LOGIN :

S'inscrire | Disclaimer

   EN    FR    IT 

 










Légende :    VFR   VFR Marginal   IFR   IFR Intensif   IFR Très Intensif
Visi : 
Plafond : 
>= 8 km
>= 3000ft
5 à 8 km
1000 à 3000 ft
1500m à 5 km
500 à 1000 ft
800 à 1500m
200 à 500 ft
< 800m
< 200 ft
Symboles :   Orages  Brouillard  Fortes neiges  Fortes précipitations  Vent > 20 kt
SIGMETs :   Divers  Orages  Givrage  Turbulence  Onde Orograph.  Cendres Volcan.






- Altitude de l'aérodrome : 117 ft
- Code IATA : NWI


EGSH - Norwich

DERNIER METAR :
  • 292220Z AUTO 30005KT 9000 FEW038/// M01/M02 Q1003

METARs EXPIRÉS :
  • 292150Z AUTO 26004KT 9999 NCD M01/M02 Q1003
  • 292120Z 25003KT CAVOK M02/M03 Q1003
  • 292050Z 23003KT CAVOK M01/M02 Q1003
  • 292020Z 25003KT 6000 FEW010 M02/M03 Q1003
  • 291950Z 25004KT 6000 FEW010 M01/M02 Q1003 TEMPO BKN010
  • 291920Z 23004KT 6000 FEW010 M01/M02 Q1003 TEMPO BKN010
  • 291850Z 21004KT 190V250 6000 FEW010 M01/M02 Q1003
  • 291820Z 25006KT 6000 FEW010 M01/M02 Q1003

TAF TAF EGSH
Valide du 29 à 21h jusqu'au 30 à 06h UTC


291956Z 2921/3006 29003KT 9999 SCT020
TEMPO 2921/3003 6000 SHRA BKN009
PROB30
TEMPO 2923/3003 BKN004
ATIS : +44 1603 420 640



MET'MAP, la Météo Aéronautique d'un coup d'oeil ! - Copyright ORBIFLY Décembre 2007 - Disclaimer

ORBIFLY MET'MAP TEAM :

Programmation & Développement : Alexandra Zaïnal
Sur une idée originale de : Baudouin d'Aumeries
Soutien technique & logistique : Manuel Goepfert
Assistance : Marc-Olivier Méhu




SOURCES & CREDITS :

   NOAA